Time;durP1;ratioP1;P1;durP2;ratioP2;P2;SDS_P1;SDS_P2;PMS_P1;PMS_P2;Temp;Humidity;BMP_temperature;BMP_pressure;BME280_temperature;BME280_humidity;BME280_pressure;Samples;Min_cycle;Max_cycle;Signal;HPM_P1;HPM_P2
2021/12/15 00:01:01;;;;;;;2.78;1.10;;;;;;;19.48;42.72;103425.56;4165107;28;20029;-46
2021/12/15 00:03:04;;;;;;;1.92;0.93;;;;;;;19.48;43.00;103433.88;4181770;28;20040;-52
2021/12/15 00:05:08;;;;;;;3.20;1.27;;;;;;;19.50;42.89;103426.19;4179679;28;20033;-48
2021/12/15 00:07:10;;;;;;;3.35;1.00;;;;;;;19.50;42.72;103426.19;4180858;28;20103;-46
2021/12/15 00:09:13;;;;;;;3.75;1.10;;;;;;;19.50;42.96;103424.25;4181606;28;20103;-46
2021/12/15 00:11:16;;;;;;;2.95;1.17;;;;;;;19.51;42.94;103427.88;4181691;28;20094;-45
2021/12/15 00:13:20;;;;;;;5.53;1.10;;;;;;;19.53;42.84;103426.63;4180895;28;20094;-47
2021/12/15 00:15:27;;;;;;;1.92;1.27;;;;;;;19.52;43.07;103432.41;4180981;28;20057;-47
2021/12/15 00:17:29;;;;;;;3.20;1.15;;;;;;;19.52;43.06;103430.47;4174449;28;20088;-47
2021/12/15 00:19:30;;;;;;;2.53;0.95;;;;;;;19.55;42.55;103426.41;4162895;28;20443;-49
2021/12/15 00:21:33;;;;;;;2.35;1.05;;;;;;;19.53;42.62;103426.63;4164650;28;20037;-46
2021/12/15 00:23:35;;;;;;;2.97;1.10;;;;;;;19.54;42.66;103427.47;4164727;28;20045;-46
2021/12/15 00:25:40;;;;;;;2.10;1.23;;;;;;;19.55;42.61;103429.19;4164034;28;20042;-45
2021/12/15 00:27:42;;;;;;;1.05;0.85;;;;;;;19.57;42.80;103431.78;4163712;28;20049;-47
2021/12/15 00:29:43;;;;;;;2.05;0.90;;;;;;;19.57;42.71;103432.63;4164451;28;20033;-48
2021/12/15 00:31:46;;;;;;;1.50;0.95;;;;;;;19.58;42.68;103434.31;4163052;28;20037;-45
2021/12/15 00:33:47;;;;;;;1.75;0.90;;;;;;;19.57;42.88;103432.63;4163606;28;20095;-44
2021/12/15 00:35:49;;;;;;;2.03;1.25;;;;;;;19.56;42.84;103430.88;4163983;28;20045;-45
2021/12/15 00:37:51;;;;;;;3.15;1.10;;;;;;;19.60;42.50;103442.44;4163915;28;20111;-45
2021/12/15 00:39:53;;;;;;;2.42;1.52;;;;;;;19.58;42.84;103442.66;4164647;28;20171;-44
2021/12/15 00:41:55;;;;;;;1.63;1.00;;;;;;;19.58;42.68;103445.44;4164177;28;20099;-47
2021/12/15 00:43:58;;;;;;;1.75;0.98;;;;;;;19.61;42.69;103450.59;4164567;28;20042;-48
2021/12/15 00:46:00;;;;;;;7.30;1.20;;;;;;;19.60;42.74;103448.88;4163732;28;20581;-45
2021/12/15 00:48:01;;;;;;;1.15;0.95;;;;;;;19.62;42.75;103451.47;4162490;28;20033;-48
2021/12/15 00:50:07;;;;;;;5.38;1.10;;;;;;;19.60;42.56;103451.66;4176340;28;20411;-46
2021/12/15 00:52:08;;;;;;;2.55;1.10;;;;;;;19.62;42.62;103463.41;4179377;28;20045;-49
2021/12/15 00:54:10;;;;;;;1.40;0.90;;;;;;;19.62;42.44;103457.88;4181140;28;20204;-48
2021/12/15 00:56:15;;;;;;;1.88;1.05;;;;;;;19.56;42.60;103450.31;4180661;28;20086;-49
2021/12/15 00:58:16;;;;;;;1.65;1.20;;;;;;;19.61;42.46;103461.72;4180485;28;20091;-48
2021/12/15 01:00:22;;;;;;;1.58;1.02;;;;;;;19.61;42.79;103467.28;4180459;28;20098;-46
2021/12/15 01:02:24;;;;;;;1.13;0.82;;;;;;;19.63;42.67;103467.91;4180629;28;20418;-45
2021/12/15 01:04:26;;;;;;;3.50;1.13;;;;;;;19.63;42.73;103479.00;4177452;28;20431;-47
2021/12/15 01:06:29;;;;;;;2.53;1.30;;;;;;;19.62;42.52;103474.53;4179826;28;20087;-51
2021/12/15 01:08:31;;;;;;;1.73;1.20;;;;;;;19.63;42.47;103479.00;4179963;28;20045;-47
2021/12/15 01:10:58;;;;;;;1.73;1.30;;;;;;;19.61;42.89;103471.94;4178729;28;20041;-47
2021/12/15 01:19:54;;;;;;;2.95;1.08;;;;;;;19.61;42.61;103467.28;4176300;28;20080;-48
2021/12/15 01:21:56;;;;;;;2.08;1.15;;;;;;;19.65;42.68;103470.47;4163732;28;20045;-48
2021/12/15 01:23:57;;;;;;;1.48;1.08;;;;;;;19.63;42.94;103467.91;4164298;28;20080;-48
2021/12/15 01:26:19;;;;;;;1.00;0.90;;;;;;;19.62;42.53;103463.41;4164146;28;20017;-49
2021/12/15 01:28:22;;;;;;;1.85;1.30;;;;;;;19.64;42.78;103466.81;4163579;28;20491;-47
2021/12/15 01:30:28;;;;;;;3.25;1.58;;;;;;;19.64;42.46;103464.06;4164654;28;20067;-48
2021/12/15 01:32:30;;;;;;;2.05;0.95;;;;;;;19.64;42.68;103464.06;4178640;28;20040;-49
2021/12/15 01:34:31;;;;;;;1.42;0.95;;;;;;;19.63;42.65;103470.69;4164101;28;20026;-45
2021/12/15 01:36:33;;;;;;;2.33;1.30;;;;;;;19.63;42.63;103476.25;4164289;28;20042;-47
2021/12/15 01:38:37;;;;;;;2.50;1.20;;;;;;;19.63;42.91;103479.00;4163049;28;20168;-50
2021/12/15 01:40:41;;;;;;;2.03;1.10;;;;;;;19.63;42.91;103481.78;4165879;28;20041;-47
2021/12/15 01:42:46;;;;;;;2.33;1.17;;;;;;;19.61;42.53;103481.16;4166431;28;20266;-48
2021/12/15 01:47:07;;;;;;;1.65;1.33;;;;;;;19.64;42.54;103489.06;4167271;28;20079;-48
2021/12/15 01:49:10;;;;;;;2.80;1.10;;;;;;;19.61;42.89;103489.50;4167284;28;20499;-47
2021/12/15 01:51:12;;;;;;;2.53;1.10;;;;;;;19.63;42.70;103504.00;4166971;28;20107;-46
2021/12/15 01:53:13;;;;;;;1.75;1.15;;;;;;;19.64;42.71;103505.72;4166884;28;20033;-48
2021/12/15 01:55:19;;;;;;;2.20;1.20;;;;;;;19.63;42.81;103498.47;4182976;28;20111;-46
2021/12/15 01:57:25;;;;;;;2.13;1.38;;;;;;;19.63;42.55;103501.25;4182760;28;20103;-47
2021/12/15 01:59:29;;;;;;;1.25;0.80;;;;;;;19.63;42.46;103498.47;4181476;28;20041;-54
2021/12/15 02:01:31;;;;;;;2.38;1.05;;;;;;;19.56;42.66;103489.22;4177757;28;20041;-42
2021/12/15 02:03:33;;;;;;;2.90;1.20;;;;;;;19.63;42.41;103504.00;4167105;28;20099;-45
2021/12/15 02:05:35;;;;;;;1.60;1.10;;;;;;;19.63;42.40;103504.00;4167295;28;20041;-49
2021/12/15 02:07:38;;;;;;;1.33;1.02;;;;;;;19.63;42.85;103501.25;4178091;28;20562;-46
2021/12/15 02:10:01;;;;;;;3.53;1.60;;;;;;;19.64;42.93;103510.41;4166383;28;20029;-45
2021/12/15 02:12:03;;;;;;;2.28;1.40;;;;;;;19.62;42.70;103496.75;4166398;28;20046;-46
2021/12/15 02:14:05;;;;;;;2.78;1.10;;;;;;;19.63;42.63;103504.00;4166420;28;20045;-45
2021/12/15 02:16:07;;;;;;;1.80;1.02;;;;;;;19.63;42.81;103503.16;4171023;28;20430;-48
2021/12/15 02:18:12;;;;;;;1.42;1.10;;;;;;;19.62;42.76;103505.09;4182306;28;20033;-46
2021/12/15 02:20:19;;;;;;;3.65;1.20;;;;;;;19.60;42.62;103498.88;4183353;28;20090;-47
2021/12/15 02:22:23;;;;;;;2.33;1.25;;;;;;;19.58;42.57;103497.34;4177105;28;20102;-45
2021/12/15 02:24:25;;;;;;;3.88;1.10;;;;;;;19.59;42.41;103508.25;4173308;28;20557;-44
2021/12/15 02:26:37;;;;;;;1.88;1.00;;;;;;;19.60;42.72;103504.41;4178411;28;20083;-46
2021/12/15 02:28:39;;;;;;;2.08;1.20;;;;;;;19.62;42.93;103505.09;4168494;28;20053;-44
2021/12/15 02:31:04;;;;;;;2.08;1.15;;;;;;;19.61;42.89;103506.16;4175397;28;20029;-44
2021/12/15 02:34:06;;;;;;;2.88;1.23;;;;;;;19.60;42.47;103515.53;4180261;28;20203;-45
2021/12/15 02:37:52;;;;;;;1.38;0.90;;;;;;;19.59;42.86;103505.47;4179583;28;20102;-44
2021/12/15 02:40:05;;;;;;;1.52;1.10;;;;;;;19.63;42.65;103517.91;4164420;28;20072;-46
2021/12/15 02:42:07;;;;;;;0.90;0.80;;;;;;;19.64;42.84;103511.28;4165246;28;20488;-45
2021/12/15 02:44:13;;;;;;;4.35;1.10;;;;;;;19.62;42.80;103518.97;4166818;28;20084;-44
2021/12/15 02:46:14;;;;;;;1.63;1.00;;;;;;;19.66;42.90;103519.41;4173577;28;20041;-43
2021/12/15 02:48:16;;;;;;;2.40;1.27;;;;;;;19.63;42.77;103517.91;4173240;28;20369;-46
2021/12/15 02:50:24;;;;;;;1.95;1.20;;;;;;;19.65;42.90;103526.88;4174498;28;20418;-45
2021/12/15 02:52:26;;;;;;;1.75;1.33;;;;;;;19.64;42.87;103533.50;4176573;28;20091;-43
2021/12/15 02:54:28;;;;;;;2.50;1.55;;;;;;;19.64;43.09;103527.94;4178355;28;20063;-44
2021/12/15 02:56:29;;;;;;;2.90;1.55;;;;;;;19.68;43.08;103528.38;4177220;28;20049;-45
2021/12/15 02:58:34;;;;;;;5.55;1.83;;;;;;;19.62;42.79;103513.41;4172600;28;20037;-48
2021/12/15 03:00:48;;;;;;;4.47;1.30;;;;;;;19.69;42.83;103522.59;4180289;28;20464;-47
2021/12/15 03:05:36;;;;;;;5.45;1.83;;;;;;;19.67;42.78;103533.09;4172506;28;20037;-45
2021/12/15 03:16:30;;;;;;;4.10;1.75;;;;;;;19.76;43.38;103542.94;4184228;28;20806;-45
2021/12/15 03:18:32;;;;;;;7.85;2.33;;;;;;;19.71;43.66;103534.38;4165419;28;20045;-46
2021/12/15 03:20:47;;;;;;;9.50;1.92;;;;;;;19.76;43.30;103548.50;4165738;28;20041;-45
2021/12/15 03:22:51;;;;;;;3.13;1.70;;;;;;;19.77;43.48;103550.19;4165605;28;20037;-49
2021/12/15 03:24:52;;;;;;;4.43;1.75;;;;;;;19.79;43.65;103542.53;4164962;28;20045;-44
2021/12/15 03:27:02;;;;;;;5.63;1.95;;;;;;;19.76;43.83;103542.09;4165691;28;20030;-45
2021/12/15 03:34:10;;;;;;;3.90;2.05;;;;;;;19.84;43.83;103554.91;4171013;28;20075;-45
2021/12/15 03:36:23;;;;;;;4.70;1.60;;;;;;;19.85;43.96;103556.63;4164929;28;20107;-46
2021/12/15 03:38:25;;;;;;;3.58;1.80;;;;;;;19.85;44.29;103551.09;4164814;28;20103;-45
2021/12/15 03:40:37;;;;;;;3.72;2.22;;;;;;;19.83;44.17;103542.09;4180238;28;20111;-45
2021/12/15 03:42:54;;;;;;;5.78;2.13;;;;;;;19.86;44.18;103559.19;4165838;28;20087;-44
2021/12/15 03:44:57;;;;;;;4.60;2.10;;;;;;;19.88;44.57;103561.75;4164446;28;20045;-48
2021/12/15 03:47:00;;;;;;;3.85;1.88;;;;;;;19.89;44.26;103574.59;4164757;28;20046;-45
2021/12/15 03:49:03;;;;;;;5.45;1.73;;;;;;;19.88;44.81;103570.09;4165430;28;20041;-46
2021/12/15 03:51:04;;;;;;;5.28;2.10;;;;;;;19.90;44.58;103571.59;4179167;28;20075;-46
2021/12/15 03:53:06;;;;;;;3.28;1.60;;;;;;;19.89;44.61;103555.16;4165312;28;20041;-48
2021/12/15 03:55:09;;;;;;;4.93;1.50;;;;;;;19.91;44.69;103555.78;4164972;28;20048;-46
2021/12/15 03:57:12;;;;;;;6.80;2.00;;;;;;;19.92;44.48;103563.91;4164709;28;20046;-48
2021/12/15 03:59:14;;;;;;;8.40;2.05;;;;;;;19.93;44.75;103571.19;4165297;28;20083;-46
2021/12/15 04:01:21;;;;;;;3.90;1.88;;;;;;;19.95;44.98;103570.97;4168264;28;20107;-48
2021/12/15 04:03:32;;;;;;;4.80;1.52;;;;;;;19.97;44.77;103574.38;4180321;28;20488;-45
2021/12/15 04:05:33;;;;;;;7.28;1.92;;;;;;;19.99;44.88;103580.59;4165406;28;20095;-49
2021/12/15 04:07:37;;;;;;;5.53;1.95;;;;;;;20.01;44.82;103589.56;4176579;28;20040;-45
2021/12/15 04:09:39;;;;;;;4.32;1.80;;;;;;;20.01;44.70;103597.91;4181927;28;20041;-45
2021/12/15 04:11:42;;;;;;;3.90;1.60;;;;;;;20.04;45.22;103594.72;4181029;28;20036;-44
2021/12/15 04:13:48;;;;;;;4.65;2.08;;;;;;;20.06;45.38;103598.13;4181077;28;20040;-46
2021/12/15 04:15:56;;;;;;;2.85;1.65;;;;;;;20.06;45.80;103596.22;4180749;28;20040;-47
2021/12/15 04:18:00;;;;;;;5.95;1.75;;;;;;;20.06;45.58;103587.03;4180977;28;20098;-45
2021/12/15 04:20:08;;;;;;;1.90;1.50;;;;;;;20.04;45.95;103580.81;4180831;28;20492;-43
2021/12/15 04:22:10;;;;;;;6.50;2.80;;;;;;;20.10;46.39;103590.25;4180799;28;20095;-43
2021/12/15 04:24:14;;;;;;;2.90;1.85;;;;;;;20.09;46.10;103589.38;4165464;28;20472;-43
2021/12/15 04:26:16;;;;;;;5.22;1.80;;;;;;;20.10;46.33;103588.31;4164567;28;20049;-47
2021/12/15 04:28:24;;;;;;;5.43;2.17;;;;;;;20.11;46.56;103584.44;4164434;28;20504;-43
2021/12/15 04:30:27;;;;;;;5.10;1.85;;;;;;;20.12;46.54;103590.91;4164193;28;20046;-45
2021/12/15 04:32:38;;;;;;;5.97;1.98;;;;;;;20.11;46.46;103587.25;4164233;28;20041;-48
2021/12/15 04:34:40;;;;;;;5.20;2.22;;;;;;;20.09;46.76;103583.81;4167620;28;20091;-47
2021/12/15 04:36:45;;;;;;;4.43;2.10;;;;;;;20.13;46.72;103587.91;4181092;28;20040;-45
2021/12/15 04:38:47;;;;;;;4.55;1.88;;;;;;;20.15;46.30;103588.53;4176270;28;20049;-48
2021/12/15 04:40:49;;;;;;;3.85;1.95;;;;;;;20.11;46.41;103584.44;4164899;28;20048;-46
2021/12/15 04:42:50;;;;;;;4.75;1.90;;;;;;;20.15;46.57;103596.88;4164744;28;20526;-45
2021/12/15 04:44:56;;;;;;;2.88;1.70;;;;;;;20.15;46.28;103585.75;4163768;28;20038;-44
2021/12/15 04:47:05;;;;;;;3.63;2.00;;;;;;;20.16;46.49;103587.50;4163813;28;20080;-45
2021/12/15 04:49:09;;;;;;;4.70;1.90;;;;;;;20.15;46.27;103594.09;4164575;28;20037;-46
2021/12/15 04:51:10;;;;;;;2.75;1.60;;;;;;;20.17;46.53;103583.63;4164270;28;20037;-46
2021/12/15 04:53:12;;;;;;;3.28;1.48;;;;;;;20.16;46.43;103576.38;4165199;28;20553;-45
2021/12/15 04:55:21;;;;;;;3.28;1.80;;;;;;;20.14;46.16;103578.47;4176386;28;20098;-49
2021/12/15 04:57:24;;;;;;;3.60;1.92;;;;;;;20.09;46.11;103575.47;4180571;28;20053;-45
2021/12/15 04:59:26;;;;;;;3.78;1.90;;;;;;;20.15;46.20;103582.13;4181130;28;20040;-44
2021/12/15 05:01:27;;;;;;;3.63;1.80;;;;;;;20.11;46.18;103570.56;4176645;28;20037;-46
2021/12/15 05:03:29;;;;;;;5.28;1.90;;;;;;;20.18;46.34;103571.44;4175250;28;20063;-49
2021/12/15 05:05:33;;;;;;;5.72;2.00;;;;;;;20.18;45.86;103574.22;4163275;28;20076;-47
2021/12/15 05:07:34;;;;;;;4.50;1.92;;;;;;;20.18;45.92;103577.00;4164038;28;20111;-46
2021/12/15 05:09:37;;;;;;;3.00;1.55;;;;;;;20.16;45.89;103576.38;4167324;28;20021;-45
2021/12/15 05:11:39;;;;;;;3.63;2.00;;;;;;;20.17;46.11;103572.50;4180714;28;20029;-51
2021/12/15 05:13:40;;;;;;;4.05;1.98;;;;;;;20.19;45.70;103581.47;4180002;28;20075;-44
2021/12/15 05:15:44;;;;;;;3.15;1.83;;;;;;;20.19;45.81;103575.91;4179771;28;20132;-46
2021/12/15 05:17:46;;;;;;;4.78;2.30;;;;;;;20.19;45.86;103575.06;4179974;28;20095;-46
2021/12/15 05:19:48;;;;;;;3.10;1.80;;;;;;;20.17;46.08;103569.72;4180148;28;20024;-45
2021/12/15 05:21:51;;;;;;;3.95;1.88;;;;;;;20.19;46.05;103564.78;4180417;28;20033;-47
2021/12/15 05:23:59;;;;;;;3.08;1.60;;;;;;;20.17;45.81;103569.72;4178822;28;20103;-45
2021/12/15 05:26:01;;;;;;;1.92;1.38;;;;;;;20.21;45.58;103568.25;4163490;28;20099;-45
2021/12/15 05:28:03;;;;;;;7.10;2.05;;;;;;;20.19;45.49;103570.34;4169257;28;20044;-44
2021/12/15 05:30:25;;;;;;;3.15;2.00;;;;;;;20.16;45.67;103562.47;4175230;28;20041;-44
2021/12/15 05:32:27;;;;;;;5.43;1.88;;;;;;;20.20;45.54;103572.06;4177127;28;20491;-44
2021/12/15 05:34:28;;;;;;;3.63;1.70;;;;;;;20.20;45.37;103569.28;4170713;28;20057;-47
2021/12/15 05:36:30;;;;;;;3.15;1.70;;;;;;;20.20;45.54;103560.94;4179871;28;20524;-45
2021/12/15 05:38:31;;;;;;;3.45;2.00;;;;;;;20.21;45.35;103551.56;4171758;28;20038;-47
2021/12/15 05:40:33;;;;;;;3.72;2.08;;;;;;;20.21;45.52;103546.00;4164316;28;20033;-43
2021/12/15 05:42:35;;;;;;;2.65;1.88;;;;;;;20.21;45.64;103554.34;4167833;28;20037;-45
2021/12/15 05:44:37;;;;;;;5.43;2.67;;;;;;;20.19;45.56;103556.47;4174149;28;20033;-46
2021/12/15 05:46:38;;;;;;;2.70;1.70;;;;;;;20.20;45.36;103560.09;4162495;28;20045;-46
2021/12/15 05:48:40;;;;;;;4.10;1.85;;;;;;;20.18;45.34;103559.47;4164966;28;20034;-45
2021/12/15 05:50:44;;;;;;;3.78;1.83;;;;;;;20.15;45.27;103552.38;4180577;28;20041;-48
2021/12/15 05:52:45;;;;;;;2.95;1.60;;;;;;;20.20;45.10;103563.72;4180089;28;20049;-45
2021/12/15 05:54:47;;;;;;;2.72;1.70;;;;;;;20.22;45.13;103569.94;4179878;28;20472;-46
2021/12/15 05:56:49;;;;;;;3.20;1.80;;;;;;;20.22;45.37;103578.28;4179916;28;20094;-48
2021/12/15 05:58:50;;;;;;;2.28;1.60;;;;;;;20.22;45.04;103575.50;4165123;28;20111;-51
2021/12/15 06:00:52;;;;;;;3.33;1.98;;;;;;;20.21;45.01;103571.03;4172568;28;20045;-49
2021/12/15 06:02:54;;;;;;;3.05;1.75;;;;;;;20.22;45.08;103567.16;4179313;28;20029;-44
2021/12/15 06:04:56;;;;;;;4.10;1.50;;;;;;;20.21;45.04;103557.13;4166240;28;20049;-46
2021/12/15 06:06:58;;;;;;;2.78;1.67;;;;;;;20.16;45.25;103531.88;4162999;28;20041;-45
2021/12/15 06:09:00;;;;;;;2.25;1.70;;;;;;;20.22;45.28;103557.97;4165266;28;20037;-50
2021/12/15 06:11:02;;;;;;;4.15;1.70;;;;;;;20.20;44.94;103554.53;4173958;28;20091;-49
2021/12/15 06:13:07;;;;;;;2.60;1.52;;;;;;;20.21;45.35;103546.00;4163560;28;20049;-47
2021/12/15 06:15:09;;;;;;;2.58;1.67;;;;;;;20.19;44.74;103547.25;4173697;28;20032;-45
2021/12/15 06:17:11;;;;;;;3.40;1.88;;;;;;;20.22;44.87;103558.81;4180108;28;20079;-45
2021/12/15 06:19:13;;;;;;;7.20;2.08;;;;;;;20.20;45.18;103552.59;4175983;28;20045;-43
2021/12/15 06:21:15;;;;;;;4.65;2.00;;;;;;;20.22;44.92;103560.75;4171628;28;20048;-45
2021/12/15 06:23:19;;;;;;;3.90;1.70;;;;;;;20.23;44.82;103559.66;4179636;28;20041;-47
2021/12/15 06:25:22;;;;;;;2.10;1.88;;;;;;;20.24;44.67;103561.38;4171749;28;20034;-44
2021/12/15 06:27:25;;;;;;;2.80;1.88;;;;;;;20.21;44.87;103568.25;4166456;28;20473;-48
2021/12/15 06:29:27;;;;;;;2.88;1.73;;;;;;;20.22;44.83;103564.38;4166827;28;20072;-49
2021/12/15 06:31:28;;;;;;;2.90;1.70;;;;;;;20.22;45.20;103560.75;4165989;28;20504;-45
2021/12/15 06:33:30;;;;;;;3.13;1.83;;;;;;;20.23;44.88;103570.78;4166129;28;20114;-46
2021/12/15 06:35:33;;;;;;;2.35;1.40;;;;;;;20.17;44.77;103566.94;4166247;28;20037;-48
2021/12/15 06:37:35;;;;;;;4.15;1.50;;;;;;;20.20;45.05;103574.00;4174970;28;20045;-45
2021/12/15 06:39:37;;;;;;;3.65;1.88;;;;;;;20.20;45.15;103582.34;4182411;28;20041;-46
2021/12/15 06:41:38;;;;;;;3.65;2.05;;;;;;;20.19;45.21;103578.69;4183072;28;20310;-45
2021/12/15 06:43:47;;;;;;;3.58;1.83;;;;;;;20.20;44.76;103587.88;4182928;28;20033;-46
2021/12/15 06:59:35;;;;;;;3.40;1.88;;;;;;;20.20;45.06;103594.31;4166293;28;20554;-45
2021/12/15 07:01:36;;;;;;;2.13;1.40;;;;;;;20.18;44.83;103596.47;4164570;28;20107;-48
2021/12/15 07:03:41;;;;;;;3.53;1.80;;;;;;;20.18;45.01;103596.47;4164403;28;20080;-48
2021/12/15 07:05:42;;;;;;;3.75;2.10;;;;;;;20.16;44.73;103598.59;4164655;28;20102;-47
2021/12/15 07:07:45;;;;;;;2.53;1.63;;;;;;;20.17;45.00;103600.31;4164849;28;20034;-45
2021/12/15 07:09:46;;;;;;;2.47;1.77;;;;;;;20.18;45.07;103613.13;4166111;28;20531;-47
2021/12/15 07:11:50;;;;;;;2.38;1.77;;;;;;;20.16;45.09;103611.63;4165917;28;20166;-45
2021/12/15 07:13:51;;;;;;;2.35;1.70;;;;;;;20.16;45.05;103615.28;4172236;28;20037;-46
2021/12/15 07:16:00;;;;;;;3.95;1.65;;;;;;;20.15;44.66;103619.09;4182402;28;20441;-47
2021/12/15 07:18:04;;;;;;;3.28;1.80;;;;;;;20.13;44.71;103603.72;4182034;28;20045;-48
2021/12/15 07:22:34;;;;;;;6.13;2.20;;;;;;;20.15;45.12;103613.56;4181097;28;20110;-44
2021/12/15 07:24:36;;;;;;;2.40;1.45;;;;;;;20.13;45.12;103614.84;4170360;28;20378;-45
2021/12/15 07:26:38;;;;;;;3.17;1.98;;;;;;;20.13;44.70;103614.84;4181469;28;20385;-46
2021/12/15 07:28:40;;;;;;;4.30;2.28;;;;;;;20.12;44.65;103618.69;4177271;28;20048;-45
2021/12/15 07:30:42;;;;;;;2.47;1.73;;;;;;;20.12;44.90;103625.13;4176595;28;20461;-45
2021/12/15 07:32:44;;;;;;;2.33;1.70;;;;;;;20.11;45.16;103616.97;4166658;28;20480;-46
2021/12/15 07:34:45;;;;;;;2.47;1.30;;;;;;;20.11;44.85;103623.38;4165573;28;20111;-45
2021/12/15 07:36:47;;;;;;;2.45;1.77;;;;;;;20.09;45.21;103619.97;4163424;28;20049;-48
2021/12/15 07:38:48;;;;;;;3.42;1.80;;;;;;;20.08;45.08;103611.84;4163850;28;20103;-49
2021/12/15 07:40:51;;;;;;;2.50;1.83;;;;;;;20.09;44.98;103613.56;4164816;28;20049;-49
2021/12/15 07:43:08;;;;;;;2.63;1.60;;;;;;;20.06;44.95;103609.25;4168500;28;20032;-46
2021/12/15 07:45:11;;;;;;;3.85;1.40;;;;;;;20.08;44.73;103607.13;4168878;28;20484;-45
2021/12/15 07:47:13;;;;;;;3.53;1.80;;;;;;;20.08;45.09;103607.13;4165044;28;20045;-45
2021/12/15 07:49:14;;;;;;;2.65;1.83;;;;;;;20.06;45.09;103595.34;4171756;28;20094;-46
2021/12/15 07:51:16;;;;;;;3.20;1.90;;;;;;;20.01;44.76;103592.34;4170495;28;20041;-48
2021/12/15 07:53:18;;;;;;;2.70;1.77;;;;;;;20.05;45.10;103602.00;4165140;28;20038;-48
2021/12/15 07:55:20;;;;;;;3.05;1.70;;;;;;;20.05;44.84;103599.22;4171657;28;20037;-48
2021/12/15 07:57:27;;;;;;;3.08;1.90;;;;;;;20.01;44.60;103595.13;4181547;28;20037;-48
2021/12/15 07:59:31;;;;;;;2.13;1.27;;;;;;;20.03;44.74;103601.34;4181448;28;20044;-45
2021/12/15 08:01:32;;;;;;;4.00;1.80;;;;;;;20.06;44.55;103600.91;4181134;28;20091;-46
2021/12/15 08:03:37;;;;;;;5.57;1.80;;;;;;;20.06;44.88;103606.47;4181801;28;20052;-43
2021/12/15 08:05:39;;;;;;;2.63;1.52;;;;;;;20.06;44.63;103603.69;4181637;28;20388;-44
2021/12/15 08:07:40;;;;;;;2.10;1.77;;;;;;;20.05;44.92;103607.56;4181423;28;20090;-44
2021/12/15 08:09:42;;;;;;;2.08;1.65;;;;;;;19.99;44.44;103594.50;4179932;28;20067;-43
2021/12/15 08:11:43;;;;;;;3.47;1.92;;;;;;;20.05;44.46;103596.44;4164585;28;20084;-43
2021/12/15 08:13:45;;;;;;;2.30;1.80;;;;;;;20.03;44.43;103590.25;4164731;28;20042;-43
2021/12/15 08:15:47;;;;;;;2.70;1.95;;;;;;;20.03;44.66;103599.44;4165113;28;20017;-43
2021/12/15 08:17:51;;;;;;;2.78;1.65;;;;;;;20.01;44.81;103592.34;4164185;28;20148;-46
2021/12/15 08:19:53;;;;;;;2.17;1.55;;;;;;;20.01;44.57;103595.13;4164222;28;20115;-44
2021/12/15 08:21:54;;;;;;;2.00;1.63;;;;;;;19.98;44.42;103592.81;4170074;28;20037;-43
2021/12/15 08:23:56;;;;;;;3.75;1.70;;;;;;;19.99;44.41;103602.84;4165142;28;20033;-43
2021/12/15 08:25:58;;;;;;;2.63;1.55;;;;;;;19.99;44.45;103597.28;4164192;28;20033;-44
2021/12/15 08:28:00;;;;;;;2.63;1.63;;;;;;;19.96;44.77;103586.56;4164583;28;20530;-43
2021/12/15 08:30:05;;;;;;;2.67;1.92;;;;;;;19.98;44.47;103595.59;4164790;28;20087;-44
2021/12/15 08:32:07;;;;;;;4.35;1.85;;;;;;;19.98;44.45;103590.03;4164567;28;20114;-44
2021/12/15 08:34:11;;;;;;;2.17;1.40;;;;;;;19.96;44.77;103593.00;4164100;28;20103;-43
2021/12/15 08:36:14;;;;;;;2.45;1.92;;;;;;;19.96;44.69;103597.69;4162132;28;20038;-43
2021/12/15 08:38:17;;;;;;;2.60;1.60;;;;;;;19.95;44.66;103602.41;4163367;28;20436;-44
2021/12/15 08:40:21;;;;;;;2.47;1.75;;;;;;;19.95;44.44;103598.78;4164635;28;20033;-43
2021/12/15 08:42:22;;;;;;;2.10;1.33;;;;;;;19.96;44.42;103606.03;4163889;28;20103;-46
2021/12/15 08:44:24;;;;;;;1.80;1.58;;;;;;;19.94;44.58;103602.63;4178407;28;20041;-45
2021/12/15 08:46:31;;;;;;;3.10;2.28;;;;;;;19.93;44.62;103595.31;4181101;28;20086;-44
2021/12/15 08:48:37;;;;;;;2.67;1.95;;;;;;;19.93;44.41;103587.00;4179723;28;20032;-49
2021/12/15 08:50:41;;;;;;;2.38;1.70;;;;;;;19.94;44.36;103588.72;4180517;28;20427;-44
2021/12/15 08:52:43;;;;;;;3.07;1.97;;;;;;;19.92;44.82;103590.84;4179653;28;20029;-44
2021/12/15 08:54:44;;;;;;;2.60;1.73;;;;;;;19.87;44.60;103576.72;4179924;28;20086;-44
2021/12/15 08:56:47;;;;;;;3.10;1.50;;;;;;;19.91;44.25;103586.34;4176591;28;20549;-47
2021/12/15 08:58:48;;;;;;;2.10;1.60;;;;;;;19.91;44.27;103584.44;4176673;28;20404;-44
2021/12/15 09:00:51;;;;;;;4.05;1.80;;;;;;;19.90;44.23;103584.66;4163012;28;20426;-46
2021/12/15 09:02:55;;;;;;;2.53;1.50;;;;;;;19.89;44.40;103578.25;4168501;28;20041;-47
2021/12/15 09:04:56;;;;;;;2.45;1.77;;;;;;;19.89;44.52;103591.28;4179007;28;20488;-47
2021/12/15 09:06:58;;;;;;;2.20;1.70;;;;;;;19.85;44.58;103584.44;4180421;28;20041;-46
2021/12/15 09:08:59;;;;;;;1.40;1.30;;;;;;;19.88;44.44;103601.50;4176744;28;20624;-45
2021/12/15 09:11:05;;;;;;;1.60;1.42;;;;;;;19.87;44.53;103598.97;4168615;28;20413;-45
2021/12/15 09:13:09;;;;;;;4.20;1.90;;;;;;;19.84;44.47;103591.03;4180648;28;20033;-51
2021/12/15 09:15:11;;;;;;;2.97;1.90;;;;;;;19.84;44.16;103600.25;4180783;28;20082;-45
2021/12/15 09:17:13;;;;;;;2.60;1.40;;;;;;;19.83;44.41;103589.31;4179988;28;20045;-46
2021/12/15 09:19:15;;;;;;;2.20;1.50;;;;;;;19.83;44.53;103592.94;4180273;28;20036;-46
2021/12/15 09:21:22;;;;;;;2.35;1.60;;;;;;;19.83;44.61;103594.88;4179127;28;20037;-44
2021/12/15 09:23:24;;;;;;;2.75;1.33;;;;;;;19.79;44.23;103581.44;4172965;28;20037;-48
2021/12/15 09:25:25;;;;;;;3.15;1.70;;;;;;;19.81;44.25;103584.00;4163180;28;20045;-44
2021/12/15 09:27:30;;;;;;;2.85;1.73;;;;;;;19.80;44.17;103574.81;4163277;28;20102;-46
2021/12/15 09:29:31;;;;;;;3.00;1.95;;;;;;;19.79;44.27;103570.31;4163787;28;20041;-51
2021/12/15 09:31:35;;;;;;;2.25;1.50;;;;;;;19.78;44.29;103571.34;4164284;28;20060;-48
2021/12/15 09:33:41;;;;;;;2.20;1.70;;;;;;;19.77;43.99;103577.97;4163603;28;20476;-47
2021/12/15 09:35:43;;;;;;;2.15;1.58;;;;;;;19.78;44.50;103584.41;4163778;28;20397;-45
2021/12/15 09:37:46;;;;;;;2.58;1.60;;;;;;;19.76;44.50;103581.84;4161901;28;20536;-48
2021/12/15 09:39:50;;;;;;;1.83;1.63;;;;;;;19.73;44.07;103582.25;4163393;28;20539;-47
2021/12/15 09:41:52;;;;;;;2.25;1.77;;;;;;;19.70;44.15;103570.69;4163571;28;20088;-46
2021/12/15 09:43:56;;;;;;;2.42;1.73;;;;;;;19.78;44.24;103576.91;4180209;28;20083;-47
2021/12/15 09:46:10;;;;;;;1.77;1.30;;;;;;;19.77;44.55;103580.75;4181858;28;20049;-48
2021/12/15 10:02:25;;;;;;;2.92;1.75;;;;;;;19.84;44.36;103563.25;4170008;28;20115;-49
2021/12/15 10:04:38;;;;;;;3.03;1.52;;;;;;;19.86;44.12;103558.34;4181323;28;20052;-49
2021/12/15 10:18:29;;;;;;;2.75;1.70;;;;;;;19.90;43.93;103556.88;4182069;28;20114;-48
2021/12/15 10:20:39;;;;;;;2.60;2.20;;;;;;;19.91;43.57;103566.91;4182012;28;20045;-45
2021/12/15 10:22:45;;;;;;;2.45;1.38;;;;;;;19.91;43.99;103566.91;4182684;28;20484;-46
2021/12/15 10:24:53;;;;;;;3.00;1.30;;;;;;;19.90;44.00;103563.28;4183116;28;20541;-43
2021/12/15 10:26:57;;;;;;;2.15;1.55;;;;;;;19.91;43.78;103566.91;4182821;28;20067;-43
2021/12/15 10:29:06;;;;;;;1.98;1.33;;;;;;;19.92;43.49;103574.16;4173938;28;20326;-46
2021/12/15 10:31:13;;;;;;;2.70;1.52;;;;;;;19.93;43.85;103576.75;4179855;28;20432;-46
2021/12/15 10:33:20;;;;;;;1.63;1.35;;;;;;;19.94;43.52;103574.84;4182692;28;20033;-46
2021/12/15 10:35:32;;;;;;;2.08;1.50;;;;;;;19.95;43.52;103573.75;4166815;28;20091;-47
2021/12/15 10:37:34;;;;;;;2.60;1.50;;;;;;;19.96;43.65;103578.25;4166298;28;20107;-44
2021/12/15 10:39:35;;;;;;;2.08;1.63;;;;;;;19.91;43.52;103562.19;4171237;28;20049;-50
2021/12/15 10:41:42;;;;;;;1.70;1.48;;;;;;;19.89;43.54;103552.38;4182622;28;20039;-47
2021/12/15 10:43:48;;;;;;;2.22;1.60;;;;;;;19.96;43.57;103565.19;4180370;28;20079;-44
2021/12/15 10:45:54;;;;;;;3.05;1.60;;;;;;;19.97;43.38;103566.06;4166108;28;20041;-44